sensor_id;sensor_type;location;lat;lon;timestamp;temperature;humidity
44747;DHT22;30472;49.490;10.972;2023-05-07T00:01:48;11.90;99.90
44747;DHT22;30472;49.490;10.972;2023-05-07T00:04:14;11.90;99.90
44747;DHT22;30472;49.490;10.972;2023-05-07T00:06:39;12.00;99.90
44747;DHT22;30472;49.490;10.972;2023-05-07T00:09:06;12.00;99.90
44747;DHT22;30472;49.490;10.972;2023-05-07T00:11:32;12.00;99.90
44747;DHT22;30472;49.490;10.972;2023-05-07T00:13:58;12.00;99.90
44747;DHT22;30472;49.490;10.972;2023-05-07T00:16:24;12.10;99.90
44747;DHT22;30472;49.490;10.972;2023-05-07T00:18:49;12.10;99.90
44747;DHT22;30472;49.490;10.972;2023-05-07T00:21:15;12.10;99.90
44747;DHT22;30472;49.490;10.972;2023-05-07T00:23:41;12.10;99.90
44747;DHT22;30472;49.490;10.972;2023-05-07T00:26:07;12.10;99.90
44747;DHT22;30472;49.490;10.972;2023-05-07T00:28:32;12.20;99.90
44747;DHT22;30472;49.490;10.972;2023-05-07T00:30:58;12.10;99.90
44747;DHT22;30472;49.490;10.972;2023-05-07T00:33:23;12.20;99.90
44747;DHT22;30472;49.490;10.972;2023-05-07T00:35:52;12.20;99.90
44747;DHT22;30472;49.490;10.972;2023-05-07T00:38:17;12.20;99.90
44747;DHT22;30472;49.490;10.972;2023-05-07T00:40:43;12.20;99.90
44747;DHT22;30472;49.490;10.972;2023-05-07T00:43:08;12.20;99.90
44747;DHT22;30472;49.490;10.972;2023-05-07T00:45:34;12.20;99.90
44747;DHT22;30472;49.490;10.972;2023-05-07T00:48:01;12.20;99.90
44747;DHT22;30472;49.490;10.972;2023-05-07T00:50:28;12.20;99.90
44747;DHT22;30472;49.490;10.972;2023-05-07T00:52:54;12.20;99.90
44747;DHT22;30472;49.490;10.972;2023-05-07T00:55:21;12.20;99.90
44747;DHT22;30472;49.490;10.972;2023-05-07T00:57:47;12.30;99.90
44747;DHT22;30472;49.490;10.972;2023-05-07T01:00:13;12.30;99.90
44747;DHT22;30472;49.490;10.972;2023-05-07T01:02:39;12.30;99.90
44747;DHT22;30472;49.490;10.972;2023-05-07T01:05:06;12.40;99.90
44747;DHT22;30472;49.490;10.972;2023-05-07T01:07:33;12.50;99.90
44747;DHT22;30472;49.490;10.972;2023-05-07T01:09:59;12.60;99.90
44747;DHT22;30472;49.490;10.972;2023-05-07T01:12:26;12.60;99.90
44747;DHT22;30472;49.490;10.972;2023-05-07T01:14:53;12.60;99.90
44747;DHT22;30472;49.490;10.972;2023-05-07T01:17:19;12.60;99.90
44747;DHT22;30472;49.490;10.972;2023-05-07T01:19:44;12.70;99.90
44747;DHT22;30472;49.490;10.972;2023-05-07T01:22:11;12.70;99.90
44747;DHT22;30472;49.490;10.972;2023-05-07T01:24:37;12.80;99.90
44747;DHT22;30472;49.490;10.972;2023-05-07T01:27:03;12.80;99.90
44747;DHT22;30472;49.490;10.972;2023-05-07T01:29:29;12.80;99.90
44747;DHT22;30472;49.490;10.972;2023-05-07T01:31:57;12.80;99.90
44747;DHT22;30472;49.490;10.972;2023-05-07T01:34:25;12.80;99.90
44747;DHT22;30472;49.490;10.972;2023-05-07T01:36:53;12.80;99.90
44747;DHT22;30472;49.490;10.972;2023-05-07T01:39:18;12.80;99.90
44747;DHT22;30472;49.490;10.972;2023-05-07T01:41:45;12.80;99.90
44747;DHT22;30472;49.490;10.972;2023-05-07T01:44:12;12.80;99.90
44747;DHT22;30472;49.490;10.972;2023-05-07T01:46:38;12.90;99.90
44747;DHT22;30472;49.490;10.972;2023-05-07T01:49:04;12.90;99.90
44747;DHT22;30472;49.490;10.972;2023-05-07T01:51:30;12.90;99.90
44747;DHT22;30472;49.490;10.972;2023-05-07T01:53:56;12.90;99.90
44747;DHT22;30472;49.490;10.972;2023-05-07T01:56:23;12.80;99.90
44747;DHT22;30472;49.490;10.972;2023-05-07T01:58:50;12.80;99.90
44747;DHT22;30472;49.490;10.972;2023-05-07T02:01:17;12.80;99.90
44747;DHT22;30472;49.490;10.972;2023-05-07T02:03:43;12.70;99.90
44747;DHT22;30472;49.490;10.972;2023-05-07T02:06:09;12.70;99.90
44747;DHT22;30472;49.490;10.972;2023-05-07T02:08:34;12.70;99.90
44747;DHT22;30472;49.490;10.972;2023-05-07T02:11:00;12.70;99.90
44747;DHT22;30472;49.490;10.972;2023-05-07T02:13:31;12.70;99.90
44747;DHT22;30472;49.490;10.972;2023-05-07T02:15:57;12.70;99.90
44747;DHT22;30472;49.490;10.972;2023-05-07T02:18:22;12.70;99.90
44747;DHT22;30472;49.490;10.972;2023-05-07T02:20:48;12.70;99.90
44747;DHT22;30472;49.490;10.972;2023-05-07T02:23:13;12.70;99.90
44747;DHT22;30472;49.490;10.972;2023-05-07T02:25:39;12.70;99.90
44747;DHT22;30472;49.490;10.972;2023-05-07T02:28:05;12.60;99.90
44747;DHT22;30472;49.490;10.972;2023-05-07T02:30:30;12.60;99.90
44747;DHT22;30472;49.490;10.972;2023-05-07T02:32:56;12.60;99.90
44747;DHT22;30472;49.490;10.972;2023-05-07T02:35:21;12.60;99.90
44747;DHT22;30472;49.490;10.972;2023-05-07T02:37:47;12.50;99.90
44747;DHT22;30472;49.490;10.972;2023-05-07T02:40:12;12.50;99.90
44747;DHT22;30472;49.490;10.972;2023-05-07T02:42:38;12.40;99.90
44747;DHT22;30472;49.490;10.972;2023-05-07T02:45:04;12.40;99.90
44747;DHT22;30472;49.490;10.972;2023-05-07T02:47:30;12.40;99.90
44747;DHT22;30472;49.490;10.972;2023-05-07T02:49:55;12.30;99.90
44747;DHT22;30472;49.490;10.972;2023-05-07T02:52:21;12.20;99.90
44747;DHT22;30472;49.490;10.972;2023-05-07T02:54:47;12.20;99.90
44747;DHT22;30472;49.490;10.972;2023-05-07T02:57:12;12.10;99.90
44747;DHT22;30472;49.490;10.972;2023-05-07T02:59:38;12.10;99.90
44747;DHT22;30472;49.490;10.972;2023-05-07T03:02:04;12.10;99.90
44747;DHT22;30472;49.490;10.972;2023-05-07T03:04:29;12.10;99.90
44747;DHT22;30472;49.490;10.972;2023-05-07T03:06:55;12.00;99.90
44747;DHT22;30472;49.490;10.972;2023-05-07T03:09:20;12.00;99.90
44747;DHT22;30472;49.490;10.972;2023-05-07T03:11:46;12.00;99.90
44747;DHT22;30472;49.490;10.972;2023-05-07T03:14:12;12.00;99.90
44747;DHT22;30472;49.490;10.972;2023-05-07T03:16:38;11.90;99.90
44747;DHT22;30472;49.490;10.972;2023-05-07T03:19:03;12.00;99.90
44747;DHT22;30472;49.490;10.972;2023-05-07T03:21:29;11.90;99.90
44747;DHT22;30472;49.490;10.972;2023-05-07T03:23:55;11.80;99.90
44747;DHT22;30472;49.490;10.972;2023-05-07T03:26:21;11.80;99.90
44747;DHT22;30472;49.490;10.972;2023-05-07T03:28:47;11.70;99.90
44747;DHT22;30472;49.490;10.972;2023-05-07T03:31:12;11.80;99.90
44747;DHT22;30472;49.490;10.972;2023-05-07T03:33:55;11.80;99.90
44747;DHT22;30472;49.490;10.972;2023-05-07T03:36:22;11.70;99.90
44747;DHT22;30472;49.490;10.972;2023-05-07T03:38:48;11.70;99.90
44747;DHT22;30472;49.490;10.972;2023-05-07T03:41:15;11.70;99.90
44747;DHT22;30472;49.490;10.972;2023-05-07T03:43:40;11.70;99.90
44747;DHT22;30472;49.490;10.972;2023-05-07T03:46:06;11.70;99.90
44747;DHT22;30472;49.490;10.972;2023-05-07T03:48:32;11.60;99.90
44747;DHT22;30472;49.490;10.972;2023-05-07T03:50:58;11.60;99.90
44747;DHT22;30472;49.490;10.972;2023-05-07T03:53:23;11.50;99.90
44747;DHT22;30472;49.490;10.972;2023-05-07T03:55:49;11.60;99.90
44747;DHT22;30472;49.490;10.972;2023-05-07T03:58:15;11.40;99.90
44747;DHT22;30472;49.490;10.972;2023-05-07T04:00:41;11.40;99.90
44747;DHT22;30472;49.490;10.972;2023-05-07T04:03:07;11.40;99.90
44747;DHT22;30472;49.490;10.972;2023-05-07T04:05:32;11.30;99.90
44747;DHT22;30472;49.490;10.972;2023-05-07T04:07:58;11.30;99.90
44747;DHT22;30472;49.490;10.972;2023-05-07T04:10:24;11.30;99.90
44747;DHT22;30472;49.490;10.972;2023-05-07T04:12:50;11.30;99.90
44747;DHT22;30472;49.490;10.972;2023-05-07T04:15:15;11.30;99.90
44747;DHT22;30472;49.490;10.972;2023-05-07T04:17:41;11.30;99.90
44747;DHT22;30472;49.490;10.972;2023-05-07T04:20:09;11.40;99.90
44747;DHT22;30472;49.490;10.972;2023-05-07T04:22:35;11.50;99.90
44747;DHT22;30472;49.490;10.972;2023-05-07T04:25:01;11.60;99.90
44747;DHT22;30472;49.490;10.972;2023-05-07T04:27:27;11.60;99.90
44747;DHT22;30472;49.490;10.972;2023-05-07T04:29:53;11.70;99.90
44747;DHT22;30472;49.490;10.972;2023-05-07T04:32:21;11.70;99.90
44747;DHT22;30472;49.490;10.972;2023-05-07T04:34:46;11.80;99.90
44747;DHT22;30472;49.490;10.972;2023-05-07T04:37:12;11.80;99.90
44747;DHT22;30472;49.490;10.972;2023-05-07T04:39:37;11.80;99.90
44747;DHT22;30472;49.490;10.972;2023-05-07T04:42:03;11.90;99.90
44747;DHT22;30472;49.490;10.972;2023-05-07T04:44:28;11.90;99.90
44747;DHT22;30472;49.490;10.972;2023-05-07T04:46:56;12.00;99.90
44747;DHT22;30472;49.490;10.972;2023-05-07T04:49:22;12.00;99.90
44747;DHT22;30472;49.490;10.972;2023-05-07T04:51:47;12.10;99.90
44747;DHT22;30472;49.490;10.972;2023-05-07T04:54:13;12.20;99.90
44747;DHT22;30472;49.490;10.972;2023-05-07T04:56:38;12.30;99.90
44747;DHT22;30472;49.490;10.972;2023-05-07T04:59:04;12.40;99.90
44747;DHT22;30472;49.490;10.972;2023-05-07T05:01:29;12.50;99.90
44747;DHT22;30472;49.490;10.972;2023-05-07T05:03:55;12.60;99.90
44747;DHT22;30472;49.490;10.972;2023-05-07T05:06:20;12.70;99.90
44747;DHT22;30472;49.490;10.972;2023-05-07T05:08:46;12.80;99.90
44747;DHT22;30472;49.490;10.972;2023-05-07T05:11:12;12.90;99.90
44747;DHT22;30472;49.490;10.972;2023-05-07T05:13:37;13.00;99.90
44747;DHT22;30472;49.490;10.972;2023-05-07T05:16:03;13.10;99.90
44747;DHT22;30472;49.490;10.972;2023-05-07T05:18:28;13.20;99.90
44747;DHT22;30472;49.490;10.972;2023-05-07T05:20:54;13.20;99.90
44747;DHT22;30472;49.490;10.972;2023-05-07T05:23:19;13.30;99.90
44747;DHT22;30472;49.490;10.972;2023-05-07T05:25:45;13.30;99.90
44747;DHT22;30472;49.490;10.972;2023-05-07T05:28:11;13.40;99.90
44747;DHT22;30472;49.490;10.972;2023-05-07T05:30:36;13.40;99.90
44747;DHT22;30472;49.490;10.972;2023-05-07T05:33:02;13.40;99.90
44747;DHT22;30472;49.490;10.972;2023-05-07T05:35:27;13.40;99.90
44747;DHT22;30472;49.490;10.972;2023-05-07T05:37:53;13.50;99.90
44747;DHT22;30472;49.490;10.972;2023-05-07T05:40:19;13.50;99.90
44747;DHT22;30472;49.490;10.972;2023-05-07T05:42:44;13.50;99.90
44747;DHT22;30472;49.490;10.972;2023-05-07T05:45:10;13.60;99.90
44747;DHT22;30472;49.490;10.972;2023-05-07T05:47:35;13.60;99.90
44747;DHT22;30472;49.490;10.972;2023-05-07T05:50:01;13.60;99.90
44747;DHT22;30472;49.490;10.972;2023-05-07T05:52:27;13.70;99.90
44747;DHT22;30472;49.490;10.972;2023-05-07T05:54:53;13.70;99.90
44747;DHT22;30472;49.490;10.972;2023-05-07T05:57:19;13.80;99.90
44747;DHT22;30472;49.490;10.972;2023-05-07T05:59:44;13.80;99.90
44747;DHT22;30472;49.490;10.972;2023-05-07T06:02:10;13.90;99.90
44747;DHT22;30472;49.490;10.972;2023-05-07T06:04:36;14.00;99.90
44747;DHT22;30472;49.490;10.972;2023-05-07T06:07:01;14.10;99.90
44747;DHT22;30472;49.490;10.972;2023-05-07T06:09:27;14.10;99.90
44747;DHT22;30472;49.490;10.972;2023-05-07T06:11:52;14.20;99.90
44747;DHT22;30472;49.490;10.972;2023-05-07T06:14:18;14.30;99.90
44747;DHT22;30472;49.490;10.972;2023-05-07T06:16:44;14.30;99.90
44747;DHT22;30472;49.490;10.972;2023-05-07T06:19:09;14.50;99.90
44747;DHT22;30472;49.490;10.972;2023-05-07T06:21:35;14.60;99.90
44747;DHT22;30472;49.490;10.972;2023-05-07T06:24:00;14.80;99.90
44747;DHT22;30472;49.490;10.972;2023-05-07T06:26:26;15.00;99.90
44747;DHT22;30472;49.490;10.972;2023-05-07T06:28:51;15.30;99.90
44747;DHT22;30472;49.490;10.972;2023-05-07T06:31:18;15.30;99.90
44747;DHT22;30472;49.490;10.972;2023-05-07T06:33:46;15.10;99.90
44747;DHT22;30472;49.490;10.972;2023-05-07T06:36:12;15.20;99.90
44747;DHT22;30472;49.490;10.972;2023-05-07T06:38:38;15.30;99.90
44747;DHT22;30472;49.490;10.972;2023-05-07T06:41:06;15.30;99.90
44747;DHT22;30472;49.490;10.972;2023-05-07T06:43:32;15.20;99.90
44747;DHT22;30472;49.490;10.972;2023-05-07T06:45:57;15.30;99.90
44747;DHT22;30472;49.490;10.972;2023-05-07T06:48:23;15.30;99.90
44747;DHT22;30472;49.490;10.972;2023-05-07T06:50:48;15.50;99.90
44747;DHT22;30472;49.490;10.972;2023-05-07T06:53:14;15.80;99.90
44747;DHT22;30472;49.490;10.972;2023-05-07T06:55:39;16.10;99.90
44747;DHT22;30472;49.490;10.972;2023-05-07T06:58:06;16.40;99.90
44747;DHT22;30472;49.490;10.972;2023-05-07T07:00:31;16.20;99.90
44747;DHT22;30472;49.490;10.972;2023-05-07T07:02:57;16.20;99.90
44747;DHT22;30472;49.490;10.972;2023-05-07T07:05:22;16.60;99.90
44747;DHT22;30472;49.490;10.972;2023-05-07T07:07:48;16.90;99.90
44747;DHT22;30472;49.490;10.972;2023-05-07T07:10:20;17.00;99.90
44747;DHT22;30472;49.490;10.972;2023-05-07T07:12:46;17.30;99.90
44747;DHT22;30472;49.490;10.972;2023-05-07T07:15:11;17.60;99.90
44747;DHT22;30472;49.490;10.972;2023-05-07T07:17:37;17.80;99.90
44747;DHT22;30472;49.490;10.972;2023-05-07T07:20:03;18.20;99.90
44747;DHT22;30472;49.490;10.972;2023-05-07T07:22:29;18.30;99.90
44747;DHT22;30472;49.490;10.972;2023-05-07T07:24:54;18.20;99.90
44747;DHT22;30472;49.490;10.972;2023-05-07T07:27:20;18.10;99.90
44747;DHT22;30472;49.490;10.972;2023-05-07T07:29:45;18.20;99.90
44747;DHT22;30472;49.490;10.972;2023-05-07T07:32:11;17.90;99.90
44747;DHT22;30472;49.490;10.972;2023-05-07T07:34:36;18.10;99.90
44747;DHT22;30472;49.490;10.972;2023-05-07T07:37:02;18.10;99.90
44747;DHT22;30472;49.490;10.972;2023-05-07T07:39:31;18.00;99.90
44747;DHT22;30472;49.490;10.972;2023-05-07T07:41:57;18.10;99.90
44747;DHT22;30472;49.490;10.972;2023-05-07T07:44:22;17.90;99.90
44747;DHT22;30472;49.490;10.972;2023-05-07T07:46:48;18.20;99.90
44747;DHT22;30472;49.490;10.972;2023-05-07T07:49:14;18.10;99.90
44747;DHT22;30472;49.490;10.972;2023-05-07T07:51:40;18.00;99.90
44747;DHT22;30472;49.490;10.972;2023-05-07T07:54:06;18.10;99.90
44747;DHT22;30472;49.490;10.972;2023-05-07T07:56:32;18.10;99.90
44747;DHT22;30472;49.490;10.972;2023-05-07T07:58:59;18.20;99.90
44747;DHT22;30472;49.490;10.972;2023-05-07T08:01:24;18.10;99.90
44747;DHT22;30472;49.490;10.972;2023-05-07T08:03:51;18.40;99.90
44747;DHT22;30472;49.490;10.972;2023-05-07T08:06:17;18.90;99.90
44747;DHT22;30472;49.490;10.972;2023-05-07T08:08:42;19.50;99.90
44747;DHT22;30472;49.490;10.972;2023-05-07T08:11:08;19.30;99.90
44747;DHT22;30472;49.490;10.972;2023-05-07T08:13:34;19.30;99.90
44747;DHT22;30472;49.490;10.972;2023-05-07T08:16:00;19.50;99.90
44747;DHT22;30472;49.490;10.972;2023-05-07T08:18:26;19.70;99.90
44747;DHT22;30472;49.490;10.972;2023-05-07T08:20:53;19.80;99.90
44747;DHT22;30472;49.490;10.972;2023-05-07T08:23:19;20.00;99.90
44747;DHT22;30472;49.490;10.972;2023-05-07T08:25:44;19.70;99.90
44747;DHT22;30472;49.490;10.972;2023-05-07T08:28:10;20.00;99.90
44747;DHT22;30472;49.490;10.972;2023-05-07T08:30:36;20.00;99.90
44747;DHT22;30472;49.490;10.972;2023-05-07T08:33:01;20.50;99.90
44747;DHT22;30472;49.490;10.972;2023-05-07T08:35:27;20.40;99.90
44747;DHT22;30472;49.490;10.972;2023-05-07T08:37:53;20.40;99.90
44747;DHT22;30472;49.490;10.972;2023-05-07T08:40:19;21.30;99.90
44747;DHT22;30472;49.490;10.972;2023-05-07T08:42:48;21.20;99.90
44747;DHT22;30472;49.490;10.972;2023-05-07T08:45:14;21.60;99.90
44747;DHT22;30472;49.490;10.972;2023-05-07T08:47:44;21.80;99.90
44747;DHT22;30472;49.490;10.972;2023-05-07T08:50:12;22.00;99.90
44747;DHT22;30472;49.490;10.972;2023-05-07T08:52:37;21.80;99.90
44747;DHT22;30472;49.490;10.972;2023-05-07T08:55:04;21.70;99.90
44747;DHT22;30472;49.490;10.972;2023-05-07T08:57:30;21.70;99.90
44747;DHT22;30472;49.490;10.972;2023-05-07T08:59:55;21.50;99.90
44747;DHT22;30472;49.490;10.972;2023-05-07T09:02:21;22.20;99.90
44747;DHT22;30472;49.490;10.972;2023-05-07T09:04:47;22.80;99.90
44747;DHT22;30472;49.490;10.972;2023-05-07T09:07:12;22.10;99.90
44747;DHT22;30472;49.490;10.972;2023-05-07T09:09:38;21.80;99.90
44747;DHT22;30472;49.490;10.972;2023-05-07T09:12:04;21.60;99.90
44747;DHT22;30472;49.490;10.972;2023-05-07T09:14:29;22.20;99.90
44747;DHT22;30472;49.490;10.972;2023-05-07T09:16:56;23.00;99.90
44747;DHT22;30472;49.490;10.972;2023-05-07T09:19:26;23.90;99.90
44747;DHT22;30472;49.490;10.972;2023-05-07T09:22:02;22.90;99.90
44747;DHT22;30472;49.490;10.972;2023-05-07T09:24:28;22.80;99.90
44747;DHT22;30472;49.490;10.972;2023-05-07T09:26:59;22.20;99.90
44747;DHT22;30472;49.490;10.972;2023-05-07T09:29:25;22.40;99.90
44747;DHT22;30472;49.490;10.972;2023-05-07T09:31:51;23.00;99.90
44747;DHT22;30472;49.490;10.972;2023-05-07T09:34:17;23.50;99.90
44747;DHT22;30472;49.490;10.972;2023-05-07T09:36:42;23.90;99.90
44747;DHT22;30472;49.490;10.972;2023-05-07T09:39:08;23.30;99.90
44747;DHT22;30472;49.490;10.972;2023-05-07T09:41:43;22.70;99.90
44747;DHT22;30472;49.490;10.972;2023-05-07T09:44:09;22.50;99.90
44747;DHT22;30472;49.490;10.972;2023-05-07T09:46:36;23.50;99.90
44747;DHT22;30472;49.490;10.972;2023-05-07T09:49:07;24.20;99.90
44747;DHT22;30472;49.490;10.972;2023-05-07T09:51:41;23.90;99.90
44747;DHT22;30472;49.490;10.972;2023-05-07T09:54:09;24.30;99.90
44747;DHT22;30472;49.490;10.972;2023-05-07T09:56:35;24.50;99.90
44747;DHT22;30472;49.490;10.972;2023-05-07T09:59:03;25.00;99.90
44747;DHT22;30472;49.490;10.972;2023-05-07T10:01:31;24.60;99.90
44747;DHT22;30472;49.490;10.972;2023-05-07T10:03:57;24.50;99.90
44747;DHT22;30472;49.490;10.972;2023-05-07T10:06:24;24.00;99.90
44747;DHT22;30472;49.490;10.972;2023-05-07T10:08:52;23.50;99.90
44747;DHT22;30472;49.490;10.972;2023-05-07T10:11:18;23.50;99.90
44747;DHT22;30472;49.490;10.972;2023-05-07T10:13:46;23.20;99.90
44747;DHT22;30472;49.490;10.972;2023-05-07T10:16:13;24.10;99.90
44747;DHT22;30472;49.490;10.972;2023-05-07T10:18:40;24.70;99.90
44747;DHT22;30472;49.490;10.972;2023-05-07T10:21:34;24.80;99.90
44747;DHT22;30472;49.490;10.972;2023-05-07T10:24:09;24.90;99.90
44747;DHT22;30472;49.490;10.972;2023-05-07T10:26:41;25.00;99.90
44747;DHT22;30472;49.490;10.972;2023-05-07T10:29:17;24.80;99.90
44747;DHT22;30472;49.490;10.972;2023-05-07T10:31:58;24.00;99.90
44747;DHT22;30472;49.490;10.972;2023-05-07T10:34:29;25.10;99.90
44747;DHT22;30472;49.490;10.972;2023-05-07T10:36:58;24.20;99.90
44747;DHT22;30472;49.490;10.972;2023-05-07T10:39:24;23.40;99.90
44747;DHT22;30472;49.490;10.972;2023-05-07T10:41:49;23.00;99.90
44747;DHT22;30472;49.490;10.972;2023-05-07T10:44:28;22.90;99.90
44747;DHT22;30472;49.490;10.972;2023-05-07T10:47:15;22.90;99.90
44747;DHT22;30472;49.490;10.972;2023-05-07T10:52:24;23.20;99.90
44747;DHT22;30472;49.490;10.972;2023-05-07T10:57:50;23.20;99.90
44747;DHT22;30472;49.490;10.972;2023-05-07T11:05:29;22.80;99.90
44747;DHT22;30472;49.490;10.972;2023-05-07T11:07:56;23.20;99.90
44747;DHT22;30472;49.490;10.972;2023-05-07T11:10:21;23.00;99.90
44747;DHT22;30472;49.490;10.972;2023-05-07T11:12:51;22.70;99.90
44747;DHT22;30472;49.490;10.972;2023-05-07T11:15:47;22.80;99.90
44747;DHT22;30472;49.490;10.972;2023-05-07T11:18:17;23.20;99.90
44747;DHT22;30472;49.490;10.972;2023-05-07T11:26:01;22.80;99.90
44747;DHT22;30472;49.490;10.972;2023-05-07T11:28:28;22.70;99.90
44747;DHT22;30472;49.490;10.972;2023-05-07T11:30:54;22.70;99.90
44747;DHT22;30472;49.490;10.972;2023-05-07T11:33:20;23.10;99.90
44747;DHT22;30472;49.490;10.972;2023-05-07T11:35:46;23.50;99.90
44747;DHT22;30472;49.490;10.972;2023-05-07T11:38:13;23.70;99.90
44747;DHT22;30472;49.490;10.972;2023-05-07T11:40:52;23.40;99.90
44747;DHT22;30472;49.490;10.972;2023-05-07T11:43:18;23.50;99.90
44747;DHT22;30472;49.490;10.972;2023-05-07T11:45:47;23.60;99.90
44747;DHT22;30472;49.490;10.972;2023-05-07T11:48:14;23.80;99.90
44747;DHT22;30472;49.490;10.972;2023-05-07T11:53:28;24.60;99.90
44747;DHT22;30472;49.490;10.972;2023-05-07T11:55:55;24.00;99.90
44747;DHT22;30472;49.490;10.972;2023-05-07T11:58:22;23.70;99.90
44747;DHT22;30472;49.490;10.972;2023-05-07T12:00:49;23.30;99.90
44747;DHT22;30472;49.490;10.972;2023-05-07T12:03:15;23.20;99.90
44747;DHT22;30472;49.490;10.972;2023-05-07T12:05:40;23.20;99.90
44747;DHT22;30472;49.490;10.972;2023-05-07T12:08:07;22.90;99.90
44747;DHT22;30472;49.490;10.972;2023-05-07T12:10:33;22.90;99.90
44747;DHT22;30472;49.490;10.972;2023-05-07T12:12:58;22.80;99.90
44747;DHT22;30472;49.490;10.972;2023-05-07T12:15:24;22.60;99.90
44747;DHT22;30472;49.490;10.972;2023-05-07T12:17:50;22.70;99.90
44747;DHT22;30472;49.490;10.972;2023-05-07T12:20:16;22.50;99.90
44747;DHT22;30472;49.490;10.972;2023-05-07T12:22:42;22.30;99.90
44747;DHT22;30472;49.490;10.972;2023-05-07T12:25:08;22.40;99.90
44747;DHT22;30472;49.490;10.972;2023-05-07T12:27:37;22.30;99.90
44747;DHT22;30472;49.490;10.972;2023-05-07T12:30:03;22.30;99.90
44747;DHT22;30472;49.490;10.972;2023-05-07T12:32:29;22.30;99.90
44747;DHT22;30472;49.490;10.972;2023-05-07T12:34:54;22.20;99.90
44747;DHT22;30472;49.490;10.972;2023-05-07T12:37:26;22.30;99.90
44747;DHT22;30472;49.490;10.972;2023-05-07T12:40:09;22.20;99.90
44747;DHT22;30472;49.490;10.972;2023-05-07T12:42:40;22.30;99.90
44747;DHT22;30472;49.490;10.972;2023-05-07T12:45:12;22.60;99.90
44747;DHT22;30472;49.490;10.972;2023-05-07T12:47:38;23.20;99.90
44747;DHT22;30472;49.490;10.972;2023-05-07T12:50:07;24.00;99.90
44747;DHT22;30472;49.490;10.972;2023-05-07T12:52:33;24.70;99.90
44747;DHT22;30472;49.490;10.972;2023-05-07T12:55:05;24.80;99.90
44747;DHT22;30472;49.490;10.972;2023-05-07T12:57:38;25.00;99.90
44747;DHT22;30472;49.490;10.972;2023-05-07T13:00:05;24.40;99.90
44747;DHT22;30472;49.490;10.972;2023-05-07T13:02:36;23.70;99.90
44747;DHT22;30472;49.490;10.972;2023-05-07T13:05:02;23.50;99.90
44747;DHT22;30472;49.490;10.972;2023-05-07T13:07:28;24.00;99.90
44747;DHT22;30472;49.490;10.972;2023-05-07T13:09:53;24.00;99.90
44747;DHT22;30472;49.490;10.972;2023-05-07T13:12:19;23.70;99.90
44747;DHT22;30472;49.490;10.972;2023-05-07T13:14:45;23.20;99.90
44747;DHT22;30472;49.490;10.972;2023-05-07T13:17:10;23.20;99.90
44747;DHT22;30472;49.490;10.972;2023-05-07T13:19:36;23.20;99.90
44747;DHT22;30472;49.490;10.972;2023-05-07T13:22:03;23.50;99.90
44747;DHT22;30472;49.490;10.972;2023-05-07T13:24:28;23.90;99.90
44747;DHT22;30472;49.490;10.972;2023-05-07T13:26:54;23.60;99.90
44747;DHT22;30472;49.490;10.972;2023-05-07T13:29:20;23.20;99.90
44747;DHT22;30472;49.490;10.972;2023-05-07T13:31:47;23.70;99.90
44747;DHT22;30472;49.490;10.972;2023-05-07T13:34:13;24.10;99.90
44747;DHT22;30472;49.490;10.972;2023-05-07T13:36:38;24.70;99.90
44747;DHT22;30472;49.490;10.972;2023-05-07T13:39:05;24.40;99.90
44747;DHT22;30472;49.490;10.972;2023-05-07T13:41:31;24.60;99.90
44747;DHT22;30472;49.490;10.972;2023-05-07T13:43:58;25.10;99.90
44747;DHT22;30472;49.490;10.972;2023-05-07T13:46:23;25.20;99.90
44747;DHT22;30472;49.490;10.972;2023-05-07T13:48:49;25.40;99.90
44747;DHT22;30472;49.490;10.972;2023-05-07T13:51:16;25.10;99.90
44747;DHT22;30472;49.490;10.972;2023-05-07T13:53:42;24.80;99.90
44747;DHT22;30472;49.490;10.972;2023-05-07T13:56:07;24.60;99.90
44747;DHT22;30472;49.490;10.972;2023-05-07T13:58:33;24.90;99.90
44747;DHT22;30472;49.490;10.972;2023-05-07T14:00:59;24.40;99.90
44747;DHT22;30472;49.490;10.972;2023-05-07T14:03:24;24.30;99.90
44747;DHT22;30472;49.490;10.972;2023-05-07T14:05:50;24.40;99.90
44747;DHT22;30472;49.490;10.972;2023-05-07T14:08:15;24.10;99.90
44747;DHT22;30472;49.490;10.972;2023-05-07T14:10:43;24.30;99.90
44747;DHT22;30472;49.490;10.972;2023-05-07T14:13:09;24.30;99.90
44747;DHT22;30472;49.490;10.972;2023-05-07T14:15:35;24.10;99.90
44747;DHT22;30472;49.490;10.972;2023-05-07T14:18:02;23.80;99.90
44747;DHT22;30472;49.490;10.972;2023-05-07T14:20:27;23.30;99.90
44747;DHT22;30472;49.490;10.972;2023-05-07T14:22:53;23.30;99.90
44747;DHT22;30472;49.490;10.972;2023-05-07T14:25:18;23.30;99.90
44747;DHT22;30472;49.490;10.972;2023-05-07T14:27:44;23.00;99.90
44747;DHT22;30472;49.490;10.972;2023-05-07T14:30:10;22.90;99.90
44747;DHT22;30472;49.490;10.972;2023-05-07T14:32:36;22.90;99.90
44747;DHT22;30472;49.490;10.972;2023-05-07T14:35:01;22.80;99.90
44747;DHT22;30472;49.490;10.972;2023-05-07T14:37:27;22.90;99.90
44747;DHT22;30472;49.490;10.972;2023-05-07T14:39:53;23.00;99.90
44747;DHT22;30472;49.490;10.972;2023-05-07T14:42:18;22.90;99.90
44747;DHT22;30472;49.490;10.972;2023-05-07T14:44:45;23.00;99.90
44747;DHT22;30472;49.490;10.972;2023-05-07T14:47:12;22.90;99.90
44747;DHT22;30472;49.490;10.972;2023-05-07T14:49:38;23.00;99.90
44747;DHT22;30472;49.490;10.972;2023-05-07T14:52:04;23.20;99.90
44747;DHT22;30472;49.490;10.972;2023-05-07T14:54:33;23.30;99.90
44747;DHT22;30472;49.490;10.972;2023-05-07T14:57:00;23.40;99.90
44747;DHT22;30472;49.490;10.972;2023-05-07T14:59:25;23.20;99.90
44747;DHT22;30472;49.490;10.972;2023-05-07T15:01:51;23.10;99.90
44747;DHT22;30472;49.490;10.972;2023-05-07T15:04:16;23.00;99.90
44747;DHT22;30472;49.490;10.972;2023-05-07T15:06:42;23.10;99.90
44747;DHT22;30472;49.490;10.972;2023-05-07T15:09:08;22.90;99.90
44747;DHT22;30472;49.490;10.972;2023-05-07T15:11:34;22.90;99.90
44747;DHT22;30472;49.490;10.972;2023-05-07T15:14:00;22.50;99.90
44747;DHT22;30472;49.490;10.972;2023-05-07T15:16:25;22.50;99.90
44747;DHT22;30472;49.490;10.972;2023-05-07T15:18:51;22.40;99.90
44747;DHT22;30472;49.490;10.972;2023-05-07T15:21:17;22.40;99.90
44747;DHT22;30472;49.490;10.972;2023-05-07T15:23:42;22.40;99.90
44747;DHT22;30472;49.490;10.972;2023-05-07T15:26:09;22.30;99.90
44747;DHT22;30472;49.490;10.972;2023-05-07T15:28:35;22.30;99.90
44747;DHT22;30472;49.490;10.972;2023-05-07T15:31:00;22.20;99.90